sensor_id;sensor_type;location;lat;lon;timestamp;P1;durP1;ratioP1;P2;durP2;ratioP2
1563;SDS011;775;51.958;7.976;2023-08-08T00:00:42;15.63;;;5.00;;
1563;SDS011;775;51.958;7.976;2023-08-08T00:03:09;17.80;;;4.57;;
1563;SDS011;775;51.958;7.976;2023-08-08T00:05:38;17.83;;;4.97;;
1563;SDS011;775;51.958;7.976;2023-08-08T00:08:05;17.77;;;5.00;;
1563;SDS011;775;51.958;7.976;2023-08-08T00:10:32;19.27;;;5.73;;
1563;SDS011;775;51.958;7.976;2023-08-08T00:12:59;18.83;;;4.97;;
1563;SDS011;775;51.958;7.976;2023-08-08T00:15:26;19.43;;;5.50;;
1563;SDS011;775;51.958;7.976;2023-08-08T00:17:53;18.50;;;4.97;;
1563;SDS011;775;51.958;7.976;2023-08-08T00:20:20;16.10;;;4.53;;
1563;SDS011;775;51.958;7.976;2023-08-08T00:22:49;16.03;;;4.17;;
1563;SDS011;775;51.958;7.976;2023-08-08T00:25:16;18.77;;;4.87;;
1563;SDS011;775;51.958;7.976;2023-08-08T00:27:43;18.27;;;5.20;;
1563;SDS011;775;51.958;7.976;2023-08-08T00:30:11;16.97;;;3.73;;
1563;SDS011;775;51.958;7.976;2023-08-08T00:32:38;16.20;;;3.53;;
1563;SDS011;775;51.958;7.976;2023-08-08T00:35:05;17.97;;;4.30;;
1563;SDS011;775;51.958;7.976;2023-08-08T00:37:32;15.70;;;3.40;;
1563;SDS011;775;51.958;7.976;2023-08-08T00:40:01;14.83;;;2.93;;
1563;SDS011;775;51.958;7.976;2023-08-08T00:42:28;14.40;;;2.60;;
1563;SDS011;775;51.958;7.976;2023-08-08T00:44:55;15.40;;;3.00;;
1563;SDS011;775;51.958;7.976;2023-08-08T00:47:27;15.20;;;3.20;;
1563;SDS011;775;51.958;7.976;2023-08-08T00:49:54;15.97;;;3.07;;
1563;SDS011;775;51.958;7.976;2023-08-08T00:52:21;15.97;;;3.43;;
1563;SDS011;775;51.958;7.976;2023-08-08T00:54:48;13.27;;;2.50;;
1563;SDS011;775;51.958;7.976;2023-08-08T00:57:17;16.00;;;2.50;;
1563;SDS011;775;51.958;7.976;2023-08-08T00:59:44;12.97;;;2.40;;
1563;SDS011;775;51.958;7.976;2023-08-08T01:02:11;13.57;;;2.47;;
1563;SDS011;775;51.958;7.976;2023-08-08T01:04:38;13.70;;;2.43;;
1563;SDS011;775;51.958;7.976;2023-08-08T01:07:08;14.40;;;2.47;;
1563;SDS011;775;51.958;7.976;2023-08-08T01:09:39;13.83;;;2.70;;
1563;SDS011;775;51.958;7.976;2023-08-08T01:12:08;14.13;;;2.57;;
1563;SDS011;775;51.958;7.976;2023-08-08T01:14:38;14.10;;;2.40;;
1563;SDS011;775;51.958;7.976;2023-08-08T01:17:05;12.83;;;2.10;;
1563;SDS011;775;51.958;7.976;2023-08-08T01:19:32;13.70;;;2.53;;
1563;SDS011;775;51.958;7.976;2023-08-08T01:22:01;16.33;;;2.60;;
1563;SDS011;775;51.958;7.976;2023-08-08T01:24:30;14.00;;;2.30;;
1563;SDS011;775;51.958;7.976;2023-08-08T01:27:02;13.30;;;2.30;;
1563;SDS011;775;51.958;7.976;2023-08-08T01:29:29;13.60;;;2.40;;
1563;SDS011;775;51.958;7.976;2023-08-08T01:31:56;13.70;;;2.30;;
1563;SDS011;775;51.958;7.976;2023-08-08T01:34:23;13.53;;;2.53;;
1563;SDS011;775;51.958;7.976;2023-08-08T01:36:52;15.83;;;2.60;;
1563;SDS011;775;51.958;7.976;2023-08-08T01:39:22;16.97;;;2.20;;
1563;SDS011;775;51.958;7.976;2023-08-08T01:41:53;13.93;;;2.27;;
1563;SDS011;775;51.958;7.976;2023-08-08T01:44:20;13.53;;;2.57;;
1563;SDS011;775;51.958;7.976;2023-08-08T01:46:50;14.90;;;2.60;;
1563;SDS011;775;51.958;7.976;2023-08-08T01:49:17;12.70;;;2.30;;
1563;SDS011;775;51.958;7.976;2023-08-08T01:51:44;13.83;;;2.10;;
1563;SDS011;775;51.958;7.976;2023-08-08T01:54:11;12.77;;;2.00;;
1563;SDS011;775;51.958;7.976;2023-08-08T01:56:38;12.40;;;1.97;;
1563;SDS011;775;51.958;7.976;2023-08-08T01:59:06;13.70;;;2.30;;
1563;SDS011;775;51.958;7.976;2023-08-08T02:01:33;13.87;;;2.27;;
1563;SDS011;775;51.958;7.976;2023-08-08T02:04:00;13.07;;;2.20;;
1563;SDS011;775;51.958;7.976;2023-08-08T02:06:27;12.70;;;1.97;;
1563;SDS011;775;51.958;7.976;2023-08-08T02:08:55;14.10;;;2.47;;
1563;SDS011;775;51.958;7.976;2023-08-08T02:11:22;12.90;;;2.40;;
1563;SDS011;775;51.958;7.976;2023-08-08T02:13:49;12.30;;;2.00;;
1563;SDS011;775;51.958;7.976;2023-08-08T02:16:17;13.10;;;2.30;;
1563;SDS011;775;51.958;7.976;2023-08-08T02:18:44;12.97;;;2.00;;
1563;SDS011;775;51.958;7.976;2023-08-08T02:21:11;12.87;;;2.30;;
1563;SDS011;775;51.958;7.976;2023-08-08T02:23:39;13.23;;;2.17;;
1563;SDS011;775;51.958;7.976;2023-08-08T02:26:06;12.60;;;1.90;;
1563;SDS011;775;51.958;7.976;2023-08-08T02:28:33;12.13;;;1.80;;
1563;SDS011;775;51.958;7.976;2023-08-08T02:31:00;15.40;;;2.87;;
1563;SDS011;775;51.958;7.976;2023-08-08T02:33:28;12.60;;;2.07;;
1563;SDS011;775;51.958;7.976;2023-08-08T02:35:55;14.73;;;2.47;;
1563;SDS011;775;51.958;7.976;2023-08-08T02:38:22;17.03;;;2.93;;
1563;SDS011;775;51.958;7.976;2023-08-08T02:40:49;12.80;;;2.00;;
1563;SDS011;775;51.958;7.976;2023-08-08T02:43:16;14.60;;;3.57;;
1563;SDS011;775;51.958;7.976;2023-08-08T02:45:44;14.00;;;2.90;;
1563;SDS011;775;51.958;7.976;2023-08-08T02:48:11;13.10;;;2.70;;
1563;SDS011;775;51.958;7.976;2023-08-08T02:50:39;14.30;;;3.20;;
1563;SDS011;775;51.958;7.976;2023-08-08T02:53:06;13.60;;;3.00;;
1563;SDS011;775;51.958;7.976;2023-08-08T02:55:33;15.43;;;2.90;;
1563;SDS011;775;51.958;7.976;2023-08-08T02:58:02;14.63;;;2.80;;
1563;SDS011;775;51.958;7.976;2023-08-08T03:00:29;14.93;;;3.60;;
1563;SDS011;775;51.958;7.976;2023-08-08T03:02:56;14.20;;;2.90;;
1563;SDS011;775;51.958;7.976;2023-08-08T03:05:24;15.90;;;3.00;;
1563;SDS011;775;51.958;7.976;2023-08-08T03:07:52;14.90;;;3.00;;
1563;SDS011;775;51.958;7.976;2023-08-08T03:10:19;12.90;;;2.63;;
1563;SDS011;775;51.958;7.976;2023-08-08T03:12:46;13.70;;;3.47;;
1563;SDS011;775;51.958;7.976;2023-08-08T03:15:13;13.43;;;2.80;;
1563;SDS011;775;51.958;7.976;2023-08-08T03:17:41;17.60;;;3.83;;
1563;SDS011;775;51.958;7.976;2023-08-08T03:20:08;15.70;;;3.30;;
1563;SDS011;775;51.958;7.976;2023-08-08T03:22:36;14.90;;;3.10;;
1563;SDS011;775;51.958;7.976;2023-08-08T03:25:04;14.87;;;3.50;;
1563;SDS011;775;51.958;7.976;2023-08-08T03:27:32;17.53;;;3.57;;
1563;SDS011;775;51.958;7.976;2023-08-08T03:29:59;14.03;;;3.10;;
1563;SDS011;775;51.958;7.976;2023-08-08T03:32:26;14.93;;;3.60;;
1563;SDS011;775;51.958;7.976;2023-08-08T03:34:53;15.80;;;4.07;;
1563;SDS011;775;51.958;7.976;2023-08-08T03:37:20;14.60;;;3.30;;
1563;SDS011;775;51.958;7.976;2023-08-08T03:39:47;15.73;;;3.60;;
1563;SDS011;775;51.958;7.976;2023-08-08T03:42:16;14.00;;;3.10;;
1563;SDS011;775;51.958;7.976;2023-08-08T03:44:43;14.40;;;3.60;;
1563;SDS011;775;51.958;7.976;2023-08-08T03:47:10;16.27;;;3.70;;
1563;SDS011;775;51.958;7.976;2023-08-08T03:49:37;21.03;;;4.20;;
1563;SDS011;775;51.958;7.976;2023-08-08T03:52:05;14.80;;;3.10;;
1563;SDS011;775;51.958;7.976;2023-08-08T03:54:32;15.27;;;3.93;;
1563;SDS011;775;51.958;7.976;2023-08-08T03:56:59;15.50;;;4.20;;
1563;SDS011;775;51.958;7.976;2023-08-08T03:59:28;15.70;;;4.33;;
1563;SDS011;775;51.958;7.976;2023-08-08T04:01:55;15.27;;;4.00;;
1563;SDS011;775;51.958;7.976;2023-08-08T04:04:22;17.07;;;4.13;;
1563;SDS011;775;51.958;7.976;2023-08-08T04:06:49;17.17;;;3.60;;
1563;SDS011;775;51.958;7.976;2023-08-08T04:09:16;16.00;;;4.00;;
1563;SDS011;775;51.958;7.976;2023-08-08T04:11:43;16.07;;;4.67;;
1563;SDS011;775;51.958;7.976;2023-08-08T04:14:10;15.00;;;3.80;;
1563;SDS011;775;51.958;7.976;2023-08-08T04:16:39;14.50;;;4.37;;
1563;SDS011;775;51.958;7.976;2023-08-08T04:19:06;15.40;;;4.27;;
1563;SDS011;775;51.958;7.976;2023-08-08T04:21:33;16.60;;;5.60;;
1563;SDS011;775;51.958;7.976;2023-08-08T04:24:01;15.30;;;4.07;;
1563;SDS011;775;51.958;7.976;2023-08-08T04:26:28;15.03;;;4.23;;
1563;SDS011;775;51.958;7.976;2023-08-08T04:28:55;15.80;;;4.40;;
1563;SDS011;775;51.958;7.976;2023-08-08T04:31:22;15.00;;;4.20;;
1563;SDS011;775;51.958;7.976;2023-08-08T04:33:52;14.10;;;3.23;;
1563;SDS011;775;51.958;7.976;2023-08-08T04:36:23;16.30;;;4.00;;
1563;SDS011;775;51.958;7.976;2023-08-08T04:38:50;15.83;;;3.80;;
1563;SDS011;775;51.958;7.976;2023-08-08T04:41:17;18.77;;;4.30;;
1563;SDS011;775;51.958;7.976;2023-08-08T04:43:44;16.33;;;3.97;;
1563;SDS011;775;51.958;7.976;2023-08-08T04:46:11;19.37;;;4.30;;
1563;SDS011;775;51.958;7.976;2023-08-08T04:48:39;18.07;;;3.60;;
1563;SDS011;775;51.958;7.976;2023-08-08T04:51:08;15.10;;;3.67;;
1563;SDS011;775;51.958;7.976;2023-08-08T04:53:35;16.87;;;4.00;;
1563;SDS011;775;51.958;7.976;2023-08-08T04:56:02;16.73;;;4.00;;
1563;SDS011;775;51.958;7.976;2023-08-08T04:58:29;16.10;;;4.20;;
1563;SDS011;775;51.958;7.976;2023-08-08T05:00:57;15.57;;;3.70;;
1563;SDS011;775;51.958;7.976;2023-08-08T05:03:24;16.63;;;3.70;;
1563;SDS011;775;51.958;7.976;2023-08-08T05:05:51;15.47;;;3.20;;
1563;SDS011;775;51.958;7.976;2023-08-08T05:08:20;15.07;;;4.17;;
1563;SDS011;775;51.958;7.976;2023-08-08T05:10:47;14.23;;;3.50;;
1563;SDS011;775;51.958;7.976;2023-08-08T05:13:14;15.63;;;3.37;;
1563;SDS011;775;51.958;7.976;2023-08-08T05:15:41;14.37;;;3.20;;
1563;SDS011;775;51.958;7.976;2023-08-08T05:18:08;16.07;;;3.90;;
1563;SDS011;775;51.958;7.976;2023-08-08T05:20:35;19.00;;;3.40;;
1563;SDS011;775;51.958;7.976;2023-08-08T05:23:02;14.67;;;3.50;;
1563;SDS011;775;51.958;7.976;2023-08-08T05:25:31;13.87;;;3.20;;
1563;SDS011;775;51.958;7.976;2023-08-08T05:27:58;14.07;;;3.53;;
1563;SDS011;775;51.958;7.976;2023-08-08T05:30:25;14.83;;;3.20;;
1563;SDS011;775;51.958;7.976;2023-08-08T05:32:52;14.93;;;3.60;;
1563;SDS011;775;51.958;7.976;2023-08-08T05:35:19;16.23;;;3.63;;
1563;SDS011;775;51.958;7.976;2023-08-08T05:37:46;18.00;;;3.97;;
1563;SDS011;775;51.958;7.976;2023-08-08T05:40:13;16.83;;;4.33;;
1563;SDS011;775;51.958;7.976;2023-08-08T05:42:42;15.20;;;3.77;;
1563;SDS011;775;51.958;7.976;2023-08-08T05:45:09;16.67;;;4.90;;
1563;SDS011;775;51.958;7.976;2023-08-08T05:47:36;13.90;;;3.67;;
1563;SDS011;775;51.958;7.976;2023-08-08T05:50:03;15.97;;;4.30;;
1563;SDS011;775;51.958;7.976;2023-08-08T05:52:31;14.30;;;4.00;;
1563;SDS011;775;51.958;7.976;2023-08-08T05:54:58;15.30;;;3.83;;
1563;SDS011;775;51.958;7.976;2023-08-08T05:57:25;17.93;;;3.87;;
1563;SDS011;775;51.958;7.976;2023-08-08T05:59:54;16.47;;;3.77;;
1563;SDS011;775;51.958;7.976;2023-08-08T06:02:21;16.40;;;4.53;;
1563;SDS011;775;51.958;7.976;2023-08-08T06:04:48;16.60;;;4.50;;
1563;SDS011;775;51.958;7.976;2023-08-08T06:07:15;19.53;;;4.60;;
1563;SDS011;775;51.958;7.976;2023-08-08T06:09:42;17.50;;;4.60;;
1563;SDS011;775;51.958;7.976;2023-08-08T06:12:09;19.00;;;4.70;;
1563;SDS011;775;51.958;7.976;2023-08-08T06:14:36;16.77;;;5.50;;
1563;SDS011;775;51.958;7.976;2023-08-08T06:17:05;15.70;;;5.17;;
1563;SDS011;775;51.958;7.976;2023-08-08T06:19:32;18.73;;;6.40;;
1563;SDS011;775;51.958;7.976;2023-08-08T06:21:59;19.73;;;6.87;;
1563;SDS011;775;51.958;7.976;2023-08-08T06:24:28;18.30;;;7.20;;
1563;SDS011;775;51.958;7.976;2023-08-08T06:26:55;17.50;;;7.10;;
1563;SDS011;775;51.958;7.976;2023-08-08T06:29:22;19.23;;;7.13;;
1563;SDS011;775;51.958;7.976;2023-08-08T06:31:49;21.63;;;6.93;;
1563;SDS011;775;51.958;7.976;2023-08-08T06:34:18;19.07;;;8.30;;
1563;SDS011;775;51.958;7.976;2023-08-08T06:36:45;19.13;;;7.90;;
1563;SDS011;775;51.958;7.976;2023-08-08T06:39:13;22.90;;;7.53;;
1563;SDS011;775;51.958;7.976;2023-08-08T06:41:40;22.27;;;6.97;;
1563;SDS011;775;51.958;7.976;2023-08-08T06:44:07;16.70;;;6.63;;
1563;SDS011;775;51.958;7.976;2023-08-08T06:46:35;22.10;;;8.20;;
1563;SDS011;775;51.958;7.976;2023-08-08T06:49:02;19.50;;;9.30;;
1563;SDS011;775;51.958;7.976;2023-08-08T06:51:30;20.53;;;8.60;;
1563;SDS011;775;51.958;7.976;2023-08-08T06:53:57;24.90;;;8.33;;
1563;SDS011;775;51.958;7.976;2023-08-08T06:56:24;18.87;;;8.60;;
1563;SDS011;775;51.958;7.976;2023-08-08T06:58:52;19.37;;;8.27;;
1563;SDS011;775;51.958;7.976;2023-08-08T07:01:19;19.13;;;8.70;;
1563;SDS011;775;51.958;7.976;2023-08-08T07:03:46;18.53;;;9.27;;
1563;SDS011;775;51.958;7.976;2023-08-08T07:06:14;24.07;;;9.60;;
1563;SDS011;775;51.958;7.976;2023-08-08T07:08:43;23.00;;;9.60;;
1563;SDS011;775;51.958;7.976;2023-08-08T07:11:10;21.67;;;8.97;;
1563;SDS011;775;51.958;7.976;2023-08-08T07:13:37;20.67;;;9.00;;
1563;SDS011;775;51.958;7.976;2023-08-08T07:16:04;21.50;;;8.97;;
1563;SDS011;775;51.958;7.976;2023-08-08T07:18:31;21.13;;;10.27;;
1563;SDS011;775;51.958;7.976;2023-08-08T07:20:59;20.80;;;9.87;;
1563;SDS011;775;51.958;7.976;2023-08-08T07:23:26;22.43;;;10.67;;
1563;SDS011;775;51.958;7.976;2023-08-08T07:25:55;23.47;;;10.27;;
1563;SDS011;775;51.958;7.976;2023-08-08T07:28:22;22.57;;;10.03;;
1563;SDS011;775;51.958;7.976;2023-08-08T07:30:49;26.90;;;12.00;;
1563;SDS011;775;51.958;7.976;2023-08-08T07:33:16;23.33;;;12.03;;
1563;SDS011;775;51.958;7.976;2023-08-08T07:35:43;22.73;;;11.60;;
1563;SDS011;775;51.958;7.976;2023-08-08T07:38:10;21.97;;;11.27;;
1563;SDS011;775;51.958;7.976;2023-08-08T07:40:37;23.93;;;12.03;;
1563;SDS011;775;51.958;7.976;2023-08-08T07:43:07;24.80;;;12.60;;
1563;SDS011;775;51.958;7.976;2023-08-08T07:45:34;24.77;;;10.50;;
1563;SDS011;775;51.958;7.976;2023-08-08T07:48:02;21.50;;;10.77;;
1563;SDS011;775;51.958;7.976;2023-08-08T07:50:29;22.60;;;11.03;;
1563;SDS011;775;51.958;7.976;2023-08-08T07:52:57;23.13;;;12.20;;
1563;SDS011;775;51.958;7.976;2023-08-08T07:55:24;25.00;;;13.10;;
1563;SDS011;775;51.958;7.976;2023-08-08T07:57:51;24.67;;;12.00;;
1563;SDS011;775;51.958;7.976;2023-08-08T08:00:20;21.10;;;10.50;;
1563;SDS011;775;51.958;7.976;2023-08-08T08:02:47;20.70;;;10.70;;
1563;SDS011;775;51.958;7.976;2023-08-08T08:05:14;21.20;;;10.60;;
1563;SDS011;775;51.958;7.976;2023-08-08T08:07:41;20.67;;;10.00;;
1563;SDS011;775;51.958;7.976;2023-08-08T08:10:10;23.30;;;10.33;;
1563;SDS011;775;51.958;7.976;2023-08-08T08:12:38;23.60;;;10.00;;
1563;SDS011;775;51.958;7.976;2023-08-08T08:15:06;23.47;;;10.80;;
1563;SDS011;775;51.958;7.976;2023-08-08T08:17:34;24.10;;;10.13;;
1563;SDS011;775;51.958;7.976;2023-08-08T08:20:01;22.70;;;10.20;;
1563;SDS011;775;51.958;7.976;2023-08-08T08:22:30;22.97;;;10.10;;
1563;SDS011;775;51.958;7.976;2023-08-08T08:24:57;21.00;;;10.20;;
1563;SDS011;775;51.958;7.976;2023-08-08T08:27:25;19.00;;;9.17;;
1563;SDS011;775;51.958;7.976;2023-08-08T08:29:52;21.70;;;10.33;;
1563;SDS011;775;51.958;7.976;2023-08-08T08:32:19;23.63;;;9.27;;
1563;SDS011;775;51.958;7.976;2023-08-08T08:34:47;19.50;;;9.33;;
1563;SDS011;775;51.958;7.976;2023-08-08T08:37:14;21.03;;;9.60;;
1563;SDS011;775;51.958;7.976;2023-08-08T08:39:42;24.97;;;10.23;;
1563;SDS011;775;51.958;7.976;2023-08-08T08:42:09;20.20;;;8.67;;
1563;SDS011;775;51.958;7.976;2023-08-08T08:44:37;19.97;;;9.40;;
1563;SDS011;775;51.958;7.976;2023-08-08T08:47:04;19.40;;;8.47;;
1563;SDS011;775;51.958;7.976;2023-08-08T08:49:36;19.57;;;9.00;;
1563;SDS011;775;51.958;7.976;2023-08-08T08:52:06;23.23;;;8.43;;
1563;SDS011;775;51.958;7.976;2023-08-08T08:54:33;26.40;;;8.13;;
1563;SDS011;775;51.958;7.976;2023-08-08T08:57:00;20.20;;;7.93;;
1563;SDS011;775;51.958;7.976;2023-08-08T08:59:27;20.20;;;7.00;;
1563;SDS011;775;51.958;7.976;2023-08-08T09:01:55;22.73;;;7.60;;
1563;SDS011;775;51.958;7.976;2023-08-08T09:04:22;17.10;;;6.73;;
1563;SDS011;775;51.958;7.976;2023-08-08T09:06:49;20.10;;;6.83;;
1563;SDS011;775;51.958;7.976;2023-08-08T09:09:18;22.50;;;6.40;;
1563;SDS011;775;51.958;7.976;2023-08-08T09:11:47;19.13;;;5.20;;
1563;SDS011;775;51.958;7.976;2023-08-08T09:14:16;16.97;;;5.63;;
1563;SDS011;775;51.958;7.976;2023-08-08T09:16:43;17.27;;;5.60;;
1563;SDS011;775;51.958;7.976;2023-08-08T09:19:11;16.53;;;5.73;;
1563;SDS011;775;51.958;7.976;2023-08-08T09:21:38;16.43;;;5.03;;
1563;SDS011;775;51.958;7.976;2023-08-08T09:24:05;15.73;;;4.90;;
1563;SDS011;775;51.958;7.976;2023-08-08T09:26:33;18.30;;;5.03;;
1563;SDS011;775;51.958;7.976;2023-08-08T09:29:01;15.80;;;3.80;;
1563;SDS011;775;51.958;7.976;2023-08-08T09:31:28;13.63;;;3.53;;
1563;SDS011;775;51.958;7.976;2023-08-08T09:33:56;18.73;;;3.37;;
1563;SDS011;775;51.958;7.976;2023-08-08T09:36:23;16.13;;;3.83;;
1563;SDS011;775;51.958;7.976;2023-08-08T09:38:50;14.90;;;3.00;;
1563;SDS011;775;51.958;7.976;2023-08-08T09:41:18;15.50;;;3.00;;
1563;SDS011;775;51.958;7.976;2023-08-08T09:43:47;15.93;;;3.70;;
1563;SDS011;775;51.958;7.976;2023-08-08T09:46:14;13.80;;;2.90;;
1563;SDS011;775;51.958;7.976;2023-08-08T09:48:41;16.07;;;2.70;;
1563;SDS011;775;51.958;7.976;2023-08-08T09:51:09;15.20;;;2.67;;
1563;SDS011;775;51.958;7.976;2023-08-08T09:53:36;17.80;;;2.70;;
1563;SDS011;775;51.958;7.976;2023-08-08T09:56:03;13.13;;;2.73;;
1563;SDS011;775;51.958;7.976;2023-08-08T09:58:31;15.60;;;2.40;;
1563;SDS011;775;51.958;7.976;2023-08-08T10:01:00;14.10;;;2.50;;
1563;SDS011;775;51.958;7.976;2023-08-08T10:03:27;15.47;;;2.27;;
1563;SDS011;775;51.958;7.976;2023-08-08T10:05:54;14.87;;;2.23;;
1563;SDS011;775;51.958;7.976;2023-08-08T10:08:21;14.30;;;2.00;;
1563;SDS011;775;51.958;7.976;2023-08-08T10:10:50;12.50;;;1.70;;
1563;SDS011;775;51.958;7.976;2023-08-08T10:13:20;13.77;;;2.00;;
1563;SDS011;775;51.958;7.976;2023-08-08T10:15:48;13.93;;;2.20;;
1563;SDS011;775;51.958;7.976;2023-08-08T10:18:16;13.17;;;2.20;;
1563;SDS011;775;51.958;7.976;2023-08-08T10:20:44;15.23;;;2.20;;
1563;SDS011;775;51.958;7.976;2023-08-08T10:23:14;14.20;;;2.50;;
1563;SDS011;775;51.958;7.976;2023-08-08T10:25:43;14.60;;;2.10;;
1563;SDS011;775;51.958;7.976;2023-08-08T10:28:12;14.40;;;2.07;;
1563;SDS011;775;51.958;7.976;2023-08-08T10:30:43;15.10;;;2.47;;
1563;SDS011;775;51.958;7.976;2023-08-08T10:33:18;13.50;;;2.00;;
1563;SDS011;775;51.958;7.976;2023-08-08T10:35:54;14.73;;;1.90;;
1563;SDS011;775;51.958;7.976;2023-08-08T10:38:21;13.70;;;2.00;;
1563;SDS011;775;51.958;7.976;2023-08-08T10:40:53;15.30;;;1.87;;
1563;SDS011;775;51.958;7.976;2023-08-08T10:43:24;14.63;;;2.00;;
1563;SDS011;775;51.958;7.976;2023-08-08T10:45:51;14.50;;;2.07;;
1563;SDS011;775;51.958;7.976;2023-08-08T10:48:21;12.37;;;1.67;;
1563;SDS011;775;51.958;7.976;2023-08-08T10:50:48;13.77;;;1.73;;
1563;SDS011;775;51.958;7.976;2023-08-08T10:53:15;13.47;;;1.77;;
1563;SDS011;775;51.958;7.976;2023-08-08T10:55:42;13.53;;;1.60;;
1563;SDS011;775;51.958;7.976;2023-08-08T10:58:12;11.87;;;1.43;;
1563;SDS011;775;51.958;7.976;2023-08-08T11:00:43;14.80;;;1.67;;
1563;SDS011;775;51.958;7.976;2023-08-08T11:03:12;13.30;;;1.73;;
1563;SDS011;775;51.958;7.976;2023-08-08T11:05:41;13.00;;;1.97;;
1563;SDS011;775;51.958;7.976;2023-08-08T11:08:11;13.03;;;1.70;;
1563;SDS011;775;51.958;7.976;2023-08-08T11:10:39;14.00;;;1.90;;
1563;SDS011;775;51.958;7.976;2023-08-08T11:13:07;12.80;;;1.73;;
1563;SDS011;775;51.958;7.976;2023-08-08T11:15:35;13.47;;;1.83;;
1563;SDS011;775;51.958;7.976;2023-08-08T11:18:02;12.40;;;1.90;;
1563;SDS011;775;51.958;7.976;2023-08-08T11:20:30;11.97;;;1.73;;
1563;SDS011;775;51.958;7.976;2023-08-08T11:22:59;12.70;;;1.80;;
1563;SDS011;775;51.958;7.976;2023-08-08T11:25:27;13.90;;;1.80;;
1563;SDS011;775;51.958;7.976;2023-08-08T11:27:54;15.70;;;1.27;;
1563;SDS011;775;51.958;7.976;2023-08-08T11:30:22;12.37;;;1.40;;
1563;SDS011;775;51.958;7.976;2023-08-08T11:32:50;13.13;;;1.73;;
1563;SDS011;775;51.958;7.976;2023-08-08T11:35:17;13.70;;;2.00;;
1563;SDS011;775;51.958;7.976;2023-08-08T11:37:44;12.30;;;1.40;;
1563;SDS011;775;51.958;7.976;2023-08-08T11:40:13;13.03;;;1.70;;
1563;SDS011;775;51.958;7.976;2023-08-08T11:42:41;12.93;;;1.50;;
1563;SDS011;775;51.958;7.976;2023-08-08T11:45:09;13.70;;;1.20;;
1563;SDS011;775;51.958;7.976;2023-08-08T11:47:37;11.80;;;1.53;;
1563;SDS011;775;51.958;7.976;2023-08-08T11:50:05;12.77;;;1.23;;
1563;SDS011;775;51.958;7.976;2023-08-08T11:52:33;13.40;;;1.97;;
1563;SDS011;775;51.958;7.976;2023-08-08T11:55:00;12.07;;;1.50;;
1563;SDS011;775;51.958;7.976;2023-08-08T11:57:28;12.73;;;1.60;;
1563;SDS011;775;51.958;7.976;2023-08-08T11:59:56;12.93;;;1.47;;
1563;SDS011;775;51.958;7.976;2023-08-08T12:02:25;11.90;;;1.43;;
1563;SDS011;775;51.958;7.976;2023-08-08T12:04:52;13.23;;;1.43;;
1563;SDS011;775;51.958;7.976;2023-08-08T12:07:19;12.20;;;1.73;;
1563;SDS011;775;51.958;7.976;2023-08-08T12:09:49;15.53;;;2.53;;
1563;SDS011;775;51.958;7.976;2023-08-08T12:12:16;11.90;;;1.60;;
1563;SDS011;775;51.958;7.976;2023-08-08T12:14:47;12.30;;;1.57;;
1563;SDS011;775;51.958;7.976;2023-08-08T12:17:14;12.20;;;1.50;;
1563;SDS011;775;51.958;7.976;2023-08-08T12:19:44;13.43;;;1.57;;
1563;SDS011;775;51.958;7.976;2023-08-08T12:22:12;11.87;;;1.50;;
1563;SDS011;775;51.958;7.976;2023-08-08T12:24:39;13.17;;;1.60;;
1563;SDS011;775;51.958;7.976;2023-08-08T12:27:07;12.10;;;1.73;;
1563;SDS011;775;51.958;7.976;2023-08-08T12:29:34;12.03;;;1.43;;
1563;SDS011;775;51.958;7.976;2023-08-08T12:32:02;13.30;;;1.90;;
1563;SDS011;775;51.958;7.976;2023-08-08T12:34:32;13.83;;;2.60;;
1563;SDS011;775;51.958;7.976;2023-08-08T12:36:59;12.70;;;1.30;;
1563;SDS011;775;51.958;7.976;2023-08-08T12:39:27;11.70;;;1.37;;
1563;SDS011;775;51.958;7.976;2023-08-08T12:41:54;12.90;;;1.30;;
1563;SDS011;775;51.958;7.976;2023-08-08T12:44:22;13.03;;;1.40;;
1563;SDS011;775;51.958;7.976;2023-08-08T12:46:49;12.00;;;1.43;;
1563;SDS011;775;51.958;7.976;2023-08-08T12:49:17;11.63;;;1.20;;
1563;SDS011;775;51.958;7.976;2023-08-08T12:51:44;13.03;;;1.30;;
1563;SDS011;775;51.958;7.976;2023-08-08T12:54:11;13.80;;;1.40;;
1563;SDS011;775;51.958;7.976;2023-08-08T12:56:38;11.90;;;1.30;;
1563;SDS011;775;51.958;7.976;2023-08-08T12:59:06;14.77;;;1.60;;
1563;SDS011;775;51.958;7.976;2023-08-08T13:01:33;13.10;;;1.40;;
1563;SDS011;775;51.958;7.976;2023-08-08T13:04:00;12.03;;;1.40;;
1563;SDS011;775;51.958;7.976;2023-08-08T13:06:30;13.77;;;1.50;;
1563;SDS011;775;51.958;7.976;2023-08-08T13:08:58;15.27;;;1.40;;
1563;SDS011;775;51.958;7.976;2023-08-08T13:11:25;12.53;;;1.80;;
1563;SDS011;775;51.958;7.976;2023-08-08T13:13:52;15.60;;;1.73;;
1563;SDS011;775;51.958;7.976;2023-08-08T13:16:20;12.07;;;1.80;;
1563;SDS011;775;51.958;7.976;2023-08-08T13:18:47;13.30;;;1.70;;
1563;SDS011;775;51.958;7.976;2023-08-08T13:21:14;12.17;;;1.60;;
1563;SDS011;775;51.958;7.976;2023-08-08T13:23:43;13.20;;;1.80;;
1563;SDS011;775;51.958;7.976;2023-08-08T13:26:11;12.30;;;1.70;;
1563;SDS011;775;51.958;7.976;2023-08-08T13:28:38;12.23;;;1.63;;
1563;SDS011;775;51.958;7.976;2023-08-08T13:31:05;12.10;;;1.53;;
1563;SDS011;775;51.958;7.976;2023-08-08T13:33:33;12.50;;;1.60;;
1563;SDS011;775;51.958;7.976;2023-08-08T13:36:00;14.60;;;1.80;;
1563;SDS011;775;51.958;7.976;2023-08-08T13:38:27;12.03;;;1.50;;
1563;SDS011;775;51.958;7.976;2023-08-08T13:40:55;13.40;;;1.50;;
1563;SDS011;775;51.958;7.976;2023-08-08T13:43:23;12.07;;;1.50;;
1563;SDS011;775;51.958;7.976;2023-08-08T13:45:50;12.43;;;1.50;;
1563;SDS011;775;51.958;7.976;2023-08-08T13:48:17;12.30;;;1.80;;
1563;SDS011;775;51.958;7.976;2023-08-08T13:50:44;14.40;;;1.67;;
1563;SDS011;775;51.958;7.976;2023-08-08T13:53:11;11.70;;;1.37;;
1563;SDS011;775;51.958;7.976;2023-08-08T13:55:38;12.60;;;1.47;;
1563;SDS011;775;51.958;7.976;2023-08-08T13:58:07;11.73;;;1.20;;
1563;SDS011;775;51.958;7.976;2023-08-08T14:00:35;13.13;;;1.60;;
1563;SDS011;775;51.958;7.976;2023-08-08T14:03:02;11.90;;;1.60;;
1563;SDS011;775;51.958;7.976;2023-08-08T14:05:29;11.90;;;1.40;;
1563;SDS011;775;51.958;7.976;2023-08-08T14:07:56;12.83;;;1.60;;
1563;SDS011;775;51.958;7.976;2023-08-08T14:10:23;11.90;;;1.40;;
1563;SDS011;775;51.958;7.976;2023-08-08T14:12:50;12.57;;;1.53;;
1563;SDS011;775;51.958;7.976;2023-08-08T14:15:19;11.67;;;1.20;;
1563;SDS011;775;51.958;7.976;2023-08-08T14:17:46;13.00;;;1.20;;
1563;SDS011;775;51.958;7.976;2023-08-08T14:20:13;12.40;;;1.40;;
1563;SDS011;775;51.958;7.976;2023-08-08T14:22:43;11.80;;;1.13;;
1563;SDS011;775;51.958;7.976;2023-08-08T14:25:11;14.40;;;1.67;;
1563;SDS011;775;51.958;7.976;2023-08-08T14:27:38;11.87;;;1.30;;
1563;SDS011;775;51.958;7.976;2023-08-08T14:30:05;13.37;;;1.37;;
1563;SDS011;775;51.958;7.976;2023-08-08T14:32:34;12.93;;;2.07;;
1563;SDS011;775;51.958;7.976;2023-08-08T14:35:01;12.83;;;1.43;;
1563;SDS011;775;51.958;7.976;2023-08-08T14:37:29;12.00;;;1.40;;
1563;SDS011;775;51.958;7.976;2023-08-08T14:39:57;13.30;;;1.40;;
1563;SDS011;775;51.958;7.976;2023-08-08T14:42:24;12.00;;;1.33;;
1563;SDS011;775;51.958;7.976;2023-08-08T14:44:51;13.30;;;1.43;;
1563;SDS011;775;51.958;7.976;2023-08-08T14:47:18;11.47;;;1.20;;
1563;SDS011;775;51.958;7.976;2023-08-08T14:49:46;11.47;;;1.03;;
1563;SDS011;775;51.958;7.976;2023-08-08T14:52:16;13.60;;;1.67;;
1563;SDS011;775;51.958;7.976;2023-08-08T14:54:43;12.27;;;1.50;;
1563;SDS011;775;51.958;7.976;2023-08-08T14:57:10;12.10;;;1.50;;
1563;SDS011;775;51.958;7.976;2023-08-08T14:59:37;12.40;;;1.83;;
1563;SDS011;775;51.958;7.976;2023-08-08T15:02:04;12.70;;;1.70;;
1563;SDS011;775;51.958;7.976;2023-08-08T15:04:32;14.00;;;1.73;;
1563;SDS011;775;51.958;7.976;2023-08-08T15:07:00;12.30;;;1.50;;
1563;SDS011;775;51.958;7.976;2023-08-08T15:09:27;15.60;;;1.77;;
1563;SDS011;775;51.958;7.976;2023-08-08T15:11:55;13.33;;;1.80;;
1563;SDS011;775;51.958;7.976;2023-08-08T15:14:22;12.00;;;1.40;;
1563;SDS011;775;51.958;7.976;2023-08-08T15:16:51;13.70;;;1.30;;